Time;durP1;ratioP1;P1;durP2;ratioP2;P2;SDS_P1;SDS_P2;PMS_P1;PMS_P2;Temp;Humidity;BMP_temperature;BMP_pressure;BME280_temperature;BME280_humidity;BME280_pressure;Samples;Min_cycle;Max_cycle;Signal;HPM_P1;HPM_P2
2021/07/21 00:01:19;;;;;;;22.53;14.67;;;15.20;99.90;;;;;;5067905;28;20202;-85
2021/07/21 00:03:45;;;;;;;19.73;13.20;;;;;;;;;;5066863;28;20196;-85
2021/07/21 00:06:11;;;;;;;20.93;13.27;;;;;;;;;;5070831;28;20213;-85
2021/07/21 00:08:37;;;;;;;21.47;13.77;;;15.10;99.90;;;;;;5070976;28;20287;-85
2021/07/21 00:13:48;;;;;;;23.97;14.47;;;15.10;99.90;;;;;;5066778;28;20197;-85
2021/07/21 00:16:19;;;;;;;21.90;14.20;;;15.10;99.90;;;;;;5068149;28;20174;-85
2021/07/21 00:18:51;;;;;;;22.47;14.10;;;15.10;99.90;;;;;;5069584;28;20662;-85
2021/07/21 00:21:24;;;;;;;20.93;13.97;;;15.00;99.90;;;;;;5069445;28;20217;-85
2021/07/21 00:23:50;;;;;;;21.93;14.97;;;;;;;;;;5071598;28;20177;-85
2021/07/21 00:26:16;;;;;;;22.17;14.43;;;14.90;99.90;;;;;;5074521;28;20213;-84
2021/07/21 00:28:42;;;;;;;20.73;14.40;;;15.10;99.90;;;;;;5076151;28;20184;-84
2021/07/21 00:31:09;;;;;;;25.37;15.03;;;15.00;99.90;;;;;;5072068;28;20178;-85
2021/07/21 00:33:35;;;;;;;25.70;15.40;;;14.80;99.90;;;;;;5068532;28;20603;-85
2021/07/21 00:36:01;;;;;;;23.57;14.20;;;14.60;99.90;;;;;;5069007;28;20549;-85
2021/07/21 00:38:26;;;;;;;28.63;16.27;;;15.00;99.90;;;;;;5068788;28;20213;-85
2021/07/21 00:40:52;;;;;;;21.97;14.40;;;;;;;;;;5070867;28;20204;-85
2021/07/21 00:43:18;;;;;;;26.13;15.43;;;;;;;;;;5068463;28;20189;-85
2021/07/21 00:45:44;;;;;;;20.57;13.87;;;;;;;;;;5070541;28;20210;-85
2021/07/21 00:48:10;;;;;;;21.70;14.77;;;;;;;;;;5070288;28;20181;-85
2021/07/21 00:50:36;;;;;;;26.07;14.43;;;;;;;;;;5070068;28;20189;-85
2021/07/21 00:53:02;;;;;;;25.53;15.83;;;14.40;99.90;;;;;;5071895;28;20197;-84
2021/07/21 00:55:29;;;;;;;21.83;13.90;;;;;;;;;;5076031;28;20180;-84
2021/07/21 00:57:57;;;;;;;22.83;15.03;;;14.70;99.90;;;;;;5075091;28;20186;-85
2021/07/21 01:00:23;;;;;;;18.87;13.47;;;;;;;;;;5066366;28;20188;-85
2021/07/21 01:02:50;;;;;;;26.13;14.37;;;14.60;99.90;;;;;;5064215;28;20198;-85
2021/07/21 01:05:22;;;;;;;23.17;15.07;;;14.50;99.90;;;;;;5064844;28;20209;-85
2021/07/21 01:07:50;;;;;;;27.13;15.23;;;14.60;99.90;;;;;;5062782;28;20269;-85
2021/07/21 01:10:17;;;;;;;23.10;14.30;;;14.70;99.90;;;;;;5063333;28;20248;-85
2021/07/21 01:12:56;;;;;;;24.33;14.53;;;14.60;99.90;;;;;;5061006;28;20197;-84
2021/07/21 01:15:41;;;;;;;23.40;15.23;;;14.50;99.90;;;;;;5061761;28;20643;-84
2021/07/21 01:18:23;;;;;;;21.37;14.27;;;14.50;99.90;;;;;;5059253;28;20177;-84
2021/07/21 01:21:12;;;;;;;22.93;14.73;;;14.50;99.90;;;;;;5069621;28;20192;-85
2021/07/21 01:23:47;;;;;;;21.60;14.90;;;14.40;99.90;;;;;;5068765;28;20158;-85
2021/07/21 01:26:17;;;;;;;22.63;14.67;;;14.40;99.90;;;;;;5068429;28;20196;-85
2021/07/21 01:28:46;;;;;;;25.90;15.87;;;14.40;99.90;;;;;;5067138;28;20192;-85
2021/07/21 01:31:16;;;;;;;20.33;14.40;;;14.40;99.90;;;;;;5067811;28;20204;-85
2021/07/21 01:33:43;;;;;;;23.60;14.70;;;14.20;99.90;;;;;;5068335;28;20178;-85
2021/07/21 01:36:12;;;;;;;23.90;14.80;;;14.40;99.90;;;;;;5067067;28;20185;-86
2021/07/21 01:38:43;;;;;;;22.53;14.50;;;14.30;99.90;;;;;;5069190;28;20219;-85
2021/07/21 01:41:20;;;;;;;23.70;14.57;;;14.30;99.90;;;;;;5069008;28;20642;-85
2021/07/21 01:43:48;;;;;;;23.13;14.87;;;14.30;99.90;;;;;;5065664;28;20181;-85
2021/07/21 01:46:19;;;;;;;26.97;15.43;;;14.20;99.90;;;;;;5064804;28;20232;-85
2021/07/21 01:48:46;;;;;;;23.77;14.80;;;14.10;99.90;;;;;;5065655;28;20208;-85
2021/07/21 01:51:13;;;;;;;22.17;14.70;;;13.90;99.90;;;;;;5063886;28;20201;-85
2021/07/21 01:53:39;;;;;;;26.00;15.27;;;;;;;;;;5065412;28;20170;-85
2021/07/21 01:56:10;;;;;;;25.93;16.20;;;14.10;99.90;;;;;;5064191;28;20242;-85
2021/07/21 01:58:37;;;;;;;23.67;15.80;;;14.10;99.90;;;;;;5062996;28;20622;-85
2021/07/21 02:01:06;;;;;;;24.37;14.93;;;14.00;99.90;;;;;;5062297;28;20654;-85
2021/07/21 02:03:34;;;;;;;29.77;15.83;;;14.00;99.90;;;;;;5066606;28;20183;-85
2021/07/21 02:06:02;;;;;;;24.63;15.23;;;14.00;99.90;;;;;;5075049;28;20274;-84
2021/07/21 02:08:29;;;;;;;24.73;15.00;;;14.00;99.90;;;;;;5073244;28;20177;-85
2021/07/21 02:10:58;;;;;;;22.70;14.83;;;13.90;99.90;;;;;;5065885;28;20181;-85
2021/07/21 02:13:26;;;;;;;22.80;15.60;;;13.90;99.90;;;;;;5066664;28;20181;-85
2021/07/21 02:15:52;;;;;;;26.13;16.70;;;13.90;99.90;;;;;;5069945;28;20182;-85
2021/07/21 02:18:19;;;;;;;27.90;16.90;;;13.90;99.90;;;;;;5068888;28;20181;-85
2021/07/21 02:20:49;;;;;;;23.40;14.93;;;13.90;99.90;;;;;;5069581;28;20184;-85
2021/07/21 02:23:18;;;;;;;24.90;14.83;;;13.80;99.90;;;;;;5066951;28;20189;-85
2021/07/21 02:25:45;;;;;;;25.80;15.50;;;13.80;99.90;;;;;;5065955;28;20543;-85
2021/07/21 02:28:13;;;;;;;28.67;15.40;;;13.80;99.90;;;;;;5065882;28;20173;-85
2021/07/21 02:30:39;;;;;;;24.23;15.30;;;13.80;99.90;;;;;;5067407;28;20191;-85
2021/07/21 02:33:13;;;;;;;27.10;16.27;;;13.70;99.90;;;;;;5067976;28;20307;-85
2021/07/21 02:35:39;;;;;;;28.90;16.90;;;13.70;99.90;;;;;;5065876;28;20264;-85
2021/07/21 02:38:05;;;;;;;23.73;15.23;;;13.70;99.90;;;;;;5066377;28;20267;-85
2021/07/21 02:40:32;;;;;;;27.67;15.67;;;13.80;99.90;;;;;;5065686;28;20595;-85
2021/07/21 02:42:58;;;;;;;23.70;16.27;;;13.70;99.90;;;;;;5067305;28;20190;-85
2021/07/21 02:45:25;;;;;;;24.67;16.43;;;13.70;99.90;;;;;;5066592;28;20724;-85
2021/07/21 02:47:50;;;;;;;21.13;15.20;;;13.70;99.90;;;;;;5068235;28;20172;-85
2021/07/21 02:50:17;;;;;;;28.90;16.60;;;13.60;99.90;;;;;;5066835;28;20603;-85
2021/07/21 02:52:53;;;;;;;22.77;15.40;;;13.60;99.90;;;;;;5067950;28;20292;-85
2021/07/21 02:55:29;;;;;;;24.13;14.93;;;13.50;99.90;;;;;;5068192;28;20166;-85
2021/07/21 02:58:48;;;;;;;25.10;15.87;;;13.50;99.90;;;;;;5066125;28;20181;-85
2021/07/21 03:01:18;;;;;;;25.63;16.27;;;13.40;99.90;;;;;;5057889;28;20208;-85
2021/07/21 03:03:45;;;;;;;24.17;14.97;;;13.40;99.90;;;;;;5066140;28;20170;-86
2021/07/21 03:06:12;;;;;;;25.27;16.13;;;13.40;99.90;;;;;;5067038;28;20204;-85
2021/07/21 03:08:41;;;;;;;22.40;14.63;;;13.30;99.90;;;;;;5066957;28;20184;-85
2021/07/21 03:11:08;;;;;;;25.20;16.20;;;13.30;99.90;;;;;;5070913;28;20170;-85
2021/07/21 03:13:42;;;;;;;24.00;15.30;;;13.30;99.90;;;;;;5066893;28;20176;-86
2021/07/21 03:16:09;;;;;;;27.90;16.57;;;13.30;99.90;;;;;;5066414;28;20162;-85
2021/07/21 03:18:37;;;;;;;25.57;16.57;;;13.30;99.90;;;;;;5065814;28;20181;-85
2021/07/21 03:21:04;;;;;;;25.53;15.77;;;13.20;99.90;;;;;;5065453;28;20182;-85
2021/07/21 03:23:30;;;;;;;26.20;15.73;;;13.30;99.90;;;;;;5066088;28;20186;-85
2021/07/21 03:25:59;;;;;;;21.53;15.53;;;13.30;99.90;;;;;;5071087;28;20197;-85
2021/07/21 03:28:26;;;;;;;25.23;15.97;;;13.20;99.90;;;;;;5070617;28;20614;-85
2021/07/21 03:30:54;;;;;;;25.40;16.13;;;13.20;99.90;;;;;;5067898;28;20173;-85
2021/07/21 03:33:23;;;;;;;26.33;16.40;;;13.20;99.90;;;;;;5064037;28;20178;-85
2021/07/21 03:35:49;;;;;;;29.53;17.30;;;13.30;99.90;;;;;;5065530;28;20176;-85
2021/07/21 03:38:19;;;;;;;27.33;16.53;;;13.30;99.90;;;;;;5065924;28;20181;-85
2021/07/21 03:40:46;;;;;;;24.53;16.00;;;13.20;99.90;;;;;;5069229;28;20170;-85
2021/07/21 03:43:12;;;;;;;26.13;15.93;;;13.20;99.90;;;;;;5068219;28;20684;-85
2021/07/21 03:45:39;;;;;;;25.20;16.60;;;13.20;99.90;;;;;;5069215;28;20233;-85
2021/07/21 03:48:05;;;;;;;28.50;17.50;;;13.20;99.90;;;;;;5068394;28;20707;-85
2021/07/21 03:50:32;;;;;;;24.63;16.80;;;13.20;99.90;;;;;;5068598;28;20180;-85
2021/07/21 03:53:00;;;;;;;24.57;16.50;;;13.10;99.90;;;;;;5068564;28;20197;-85
2021/07/21 03:55:28;;;;;;;25.53;16.33;;;13.10;99.90;;;;;;5067226;28;20200;-85
2021/07/21 03:57:54;;;;;;;28.47;17.40;;;13.20;99.90;;;;;;5069110;28;20569;-84
2021/07/21 04:00:21;;;;;;;26.60;16.83;;;13.20;99.90;;;;;;5068406;28;20244;-85
2021/07/21 04:02:53;;;;;;;29.03;17.57;;;13.20;99.90;;;;;;5068532;28;20203;-84
2021/07/21 04:05:20;;;;;;;26.00;15.87;;;13.10;99.90;;;;;;5067990;28;20208;-85
2021/07/21 04:07:46;;;;;;;27.10;15.83;;;13.10;99.90;;;;;;5069150;28;20539;-85
2021/07/21 04:10:14;;;;;;;27.40;17.50;;;13.10;99.90;;;;;;5068797;28;20209;-86
2021/07/21 04:12:43;;;;;;;25.17;16.47;;;13.10;99.90;;;;;;5071409;28;20190;-84
2021/07/21 04:15:09;;;;;;;28.53;16.60;;;13.10;99.90;;;;;;5071806;28;20184;-85
2021/07/21 04:17:37;;;;;;;27.03;16.47;;;13.10;99.90;;;;;;5068162;28;20169;-84
2021/07/21 04:20:06;;;;;;;26.47;17.30;;;13.10;99.90;;;;;;5065821;28;20177;-85
2021/07/21 04:22:32;;;;;;;22.67;15.70;;;13.10;99.90;;;;;;5065120;28;20209;-85
2021/07/21 04:24:59;;;;;;;24.13;16.33;;;13.10;99.90;;;;;;5066198;28;20274;-85
2021/07/21 04:27:26;;;;;;;28.23;17.03;;;13.00;99.90;;;;;;5063695;28;20180;-85
2021/07/21 04:29:53;;;;;;;26.47;15.70;;;13.00;99.90;;;;;;5063378;28;20177;-84
2021/07/21 04:32:21;;;;;;;27.70;16.53;;;13.00;99.90;;;;;;5071521;28;20224;-84
2021/07/21 04:34:48;;;;;;;24.00;16.27;;;13.00;99.90;;;;;;5076953;28;20176;-84
2021/07/21 04:37:14;;;;;;;30.97;16.30;;;13.00;99.90;;;;;;5075286;28;20257;-85
2021/07/21 04:39:41;;;;;;;30.17;16.70;;;13.00;99.90;;;;;;5068463;28;20186;-85
2021/07/21 04:42:07;;;;;;;23.13;15.23;;;13.10;99.90;;;;;;5068998;28;20204;-85
2021/07/21 04:44:35;;;;;;;26.07;16.90;;;13.10;99.90;;;;;;5067964;28;20182;-85
2021/07/21 04:47:01;;;;;;;24.83;16.30;;;13.10;99.90;;;;;;5072279;28;20201;-85
2021/07/21 04:49:27;;;;;;;26.83;17.13;;;13.20;99.90;;;;;;5068170;28;20236;-85
2021/07/21 04:51:56;;;;;;;27.83;16.37;;;13.40;99.90;;;;;;5067910;28;20201;-86
2021/07/21 04:54:21;;;;;;;25.00;16.37;;;13.40;99.90;;;;;;5069902;28;20223;-85
2021/07/21 04:56:47;;;;;;;26.83;15.80;;;13.50;99.90;;;;;;5069960;28;20182;-84
2021/07/21 04:59:13;;;;;;;27.27;16.73;;;13.50;99.90;;;;;;5072391;28;20189;-84
2021/07/21 05:01:39;;;;;;;28.63;16.67;;;13.50;99.90;;;;;;5074120;28;20197;-84
2021/07/21 05:04:06;;;;;;;23.73;16.00;;;13.60;99.90;;;;;;5074117;28;20188;-84
2021/07/21 05:06:32;;;;;;;25.93;16.03;;;13.60;99.90;;;;;;5070036;28;20271;-85
2021/07/21 05:08:58;;;;;;;25.37;16.67;;;13.60;99.90;;;;;;5065016;28;20182;-84
2021/07/21 05:11:24;;;;;;;24.70;16.43;;;13.70;99.90;;;;;;5064599;28;20194;-84
2021/07/21 05:13:51;;;;;;;27.63;16.57;;;13.80;99.90;;;;;;5065218;28;20189;-84
2021/07/21 05:16:16;;;;;;;28.07;17.27;;;13.80;99.90;;;;;;5065391;28;20682;-84
2021/07/21 05:18:42;;;;;;;26.03;17.00;;;13.90;99.90;;;;;;5064324;28;20188;-84
2021/07/21 05:21:08;;;;;;;27.20;16.27;;;14.00;99.90;;;;;;5064724;28;20559;-84
2021/07/21 05:23:34;;;;;;;25.43;15.93;;;14.00;99.90;;;;;;5063682;28;20185;-84
2021/07/21 05:26:00;;;;;;;29.07;17.03;;;14.00;99.90;;;;;;5062942;28;20208;-84
2021/07/21 05:28:27;;;;;;;27.33;17.37;;;14.00;99.90;;;;;;5062518;28;20541;-84
2021/07/21 05:30:53;;;;;;;23.10;15.97;;;14.10;99.90;;;;;;5061686;28;20181;-85
2021/07/21 05:33:19;;;;;;;24.23;16.03;;;14.10;99.90;;;;;;5062238;28;20211;-84
2021/07/21 05:35:45;;;;;;;29.67;15.83;;;14.10;99.90;;;;;;5059973;28;20181;-84
2021/07/21 05:38:11;;;;;;;25.53;16.80;;;14.20;99.90;;;;;;5065571;28;20165;-85
2021/07/21 05:40:37;;;;;;;24.87;15.50;;;14.20;99.90;;;;;;5066827;28;20189;-85
2021/07/21 05:43:04;;;;;;;24.47;16.57;;;14.30;99.90;;;;;;5067657;28;20208;-85
2021/07/21 05:45:30;;;;;;;26.60;16.20;;;14.40;99.90;;;;;;5067443;28;20672;-85
2021/07/21 05:47:55;;;;;;;26.73;16.90;;;14.40;99.90;;;;;;5067326;28;20203;-84
2021/07/21 05:50:21;;;;;;;24.73;16.40;;;14.50;99.90;;;;;;5066700;28;20229;-84
2021/07/21 05:52:46;;;;;;;26.00;17.63;;;14.50;99.90;;;;;;5065369;28;20254;-84
2021/07/21 05:55:12;;;;;;;27.20;16.93;;;14.60;99.90;;;;;;5065569;28;20177;-84
2021/07/21 05:57:39;;;;;;;24.63;15.93;;;14.70;99.90;;;;;;5065383;28;20197;-84
2021/07/21 06:00:07;;;;;;;24.17;16.00;;;14.80;99.90;;;;;;5067958;28;20654;-84
2021/07/21 06:02:33;;;;;;;26.97;16.23;;;14.80;99.90;;;;;;5060392;28;20668;-84
2021/07/21 06:04:59;;;;;;;29.50;17.07;;;14.90;99.90;;;;;;5064504;28;20197;-85
2021/07/21 06:07:24;;;;;;;28.93;17.27;;;15.00;99.90;;;;;;5068162;28;20212;-84
2021/07/21 06:09:50;;;;;;;26.67;16.33;;;15.10;99.90;;;;;;5065890;28;20170;-84
2021/07/21 06:12:16;;;;;;;27.87;16.77;;;15.20;99.90;;;;;;5063465;28;20202;-84
2021/07/21 06:14:42;;;;;;;24.13;15.87;;;15.30;99.90;;;;;;5065713;28;20178;-84
2021/07/21 06:17:07;;;;;;;25.83;15.67;;;15.30;99.90;;;;;;5064529;28;20548;-84
2021/07/21 06:19:34;;;;;;;32.13;16.37;;;15.40;99.90;;;;;;5066023;28;20631;-84
2021/07/21 06:22:04;;;;;;;28.20;16.30;;;15.50;99.90;;;;;;5064080;28;20208;-84
2021/07/21 06:24:30;;;;;;;26.03;15.93;;;15.60;99.90;;;;;;5064669;28;20165;-84
2021/07/21 06:26:56;;;;;;;22.37;15.30;;;15.70;99.90;;;;;;5065923;28;20201;-84
2021/07/21 06:29:22;;;;;;;23.13;14.03;;;15.70;99.90;;;;;;5065665;28;20181;-84
2021/07/21 06:31:48;;;;;;;23.37;15.63;;;15.80;99.90;;;;;;5064316;28;20223;-84
2021/07/21 06:34:14;;;;;;;21.27;14.50;;;15.90;99.90;;;;;;5064013;28;20185;-84
2021/07/21 06:36:39;;;;;;;24.43;14.83;;;16.00;99.90;;;;;;5065380;28;20555;-83
2021/07/21 06:39:05;;;;;;;22.97;15.03;;;16.00;99.90;;;;;;5063053;28;20185;-84
2021/07/21 06:41:31;;;;;;;24.10;14.93;;;16.10;99.90;;;;;;5063134;28;20201;-83
2021/07/21 06:44:00;;;;;;;23.87;14.77;;;16.20;99.90;;;;;;5063042;28;20185;-83
2021/07/21 06:46:26;;;;;;;23.20;15.10;;;16.20;99.90;;;;;;5062083;28;20201;-84
2021/07/21 06:48:53;;;;;;;24.23;15.30;;;16.30;99.90;;;;;;5063591;28;20170;-83
2021/07/21 06:51:19;;;;;;;22.90;15.67;;;16.40;99.90;;;;;;5062006;28;20189;-83
2021/07/21 06:53:45;;;;;;;20.87;15.30;;;16.50;99.90;;;;;;5066380;28;20639;-83
2021/07/21 06:56:12;;;;;;;23.13;14.63;;;16.60;99.90;;;;;;5069539;28;20190;-83
2021/07/21 06:58:38;;;;;;;23.43;15.17;;;16.70;99.90;;;;;;5068267;28;20170;-83
2021/07/21 07:01:03;;;;;;;23.37;14.93;;;16.80;99.90;;;;;;5062862;28;20692;-83
2021/07/21 07:03:29;;;;;;;26.17;14.40;;;16.90;99.90;;;;;;5063641;28;20725;-83
2021/07/21 07:05:55;;;;;;;21.43;14.77;;;16.90;99.90;;;;;;5062102;28;20213;-83
2021/07/21 07:08:21;;;;;;;21.70;14.50;;;17.10;99.90;;;;;;5061604;28;20174;-83
2021/07/21 07:10:47;;;;;;;24.50;13.73;;;17.30;99.90;;;;;;5060765;28;20185;-83
2021/07/21 07:13:13;;;;;;;19.87;14.33;;;17.40;99.90;;;;;;5062464;28;20194;-83
2021/07/21 07:15:39;;;;;;;25.90;14.37;;;17.50;99.90;;;;;;5063360;28;20276;-83
2021/07/21 07:18:06;;;;;;;19.33;13.23;;;17.70;99.90;;;;;;5064984;28;20174;-83
2021/07/21 07:20:32;;;;;;;20.40;13.47;;;17.90;99.90;;;;;;5063362;28;20272;-83
2021/07/21 07:22:59;;;;;;;24.57;14.63;;;18.00;99.90;;;;;;5063440;28;20205;-83
2021/07/21 07:25:25;;;;;;;19.77;14.37;;;18.20;99.90;;;;;;5064570;28;20201;-83
2021/07/21 07:27:52;;;;;;;19.77;14.37;;;18.20;99.90;;;;;;5063838;28;20176;-82
2021/07/21 07:30:17;;;;;;;20.03;13.47;;;18.30;99.90;;;;;;5060523;28;20201;-82
2021/07/21 07:32:43;;;;;;;21.00;13.67;;;18.30;99.90;;;;;;5059106;28;20186;-82
2021/07/21 07:35:09;;;;;;;20.90;13.23;;;18.50;99.90;;;;;;5057979;28;20181;-82
2021/07/21 07:37:35;;;;;;;18.10;11.70;;;18.60;99.90;;;;;;5059943;28;20201;-82
2021/07/21 07:40:01;;;;;;;19.50;12.63;;;18.80;99.90;;;;;;5059056;28;20206;-82
2021/07/21 07:42:27;;;;;;;20.83;12.60;;;18.90;99.90;;;;;;5058917;28;20199;-82
2021/07/21 07:44:52;;;;;;;18.43;11.53;;;19.10;99.90;;;;;;5070520;28;20175;-83
2021/07/21 07:47:18;;;;;;;17.63;12.37;;;19.20;99.90;;;;;;5063317;28;20206;-83
2021/07/21 07:49:44;;;;;;;21.07;11.67;;;19.40;99.90;;;;;;5063111;28;20170;-83
2021/07/21 07:52:09;;;;;;;16.80;11.47;;;19.50;99.90;;;;;;5063996;28;20197;-83
2021/07/21 07:54:35;;;;;;;15.53;11.17;;;19.60;99.90;;;;;;5066434;28;20202;-82
2021/07/21 07:57:01;;;;;;;15.40;11.23;;;19.70;99.90;;;;;;5067346;28;20184;-82
2021/07/21 07:59:27;;;;;;;15.90;12.07;;;19.80;99.90;;;;;;5064547;28;20191;-82
2021/07/21 08:01:53;;;;;;;16.30;11.57;;;20.00;99.90;;;;;;5063720;28;20192;-83
2021/07/21 08:04:18;;;;;;;17.33;11.77;;;20.10;99.90;;;;;;5061552;28;20253;-83
2021/07/21 08:06:44;;;;;;;21.10;12.37;;;20.20;99.90;;;;;;5063289;28;20204;-82
2021/07/21 08:09:12;;;;;;;16.23;11.93;;;20.40;99.90;;;;;;5061513;28;20194;-82
2021/07/21 08:11:45;;;;;;;19.37;12.43;;;20.50;99.90;;;;;;5061685;28;20191;-83
2021/07/21 08:14:11;;;;;;;15.70;11.47;;;20.50;99.90;;;;;;5061200;28;20192;-83
2021/07/21 08:16:37;;;;;;;16.40;12.40;;;20.60;99.90;;;;;;5063642;28;20309;-83
2021/07/21 08:19:04;;;;;;;14.87;11.20;;;20.80;99.90;;;;;;5062135;28;20176;-83
2021/07/21 08:21:30;;;;;;;18.93;11.90;;;20.80;99.90;;;;;;5062834;28;20529;-83
2021/07/21 08:23:55;;;;;;;17.73;12.17;;;20.90;99.90;;;;;;5060770;28;20184;-83
2021/07/21 08:26:21;;;;;;;16.47;12.33;;;21.00;99.90;;;;;;5067016;28;20193;-83
2021/07/21 08:28:46;;;;;;;19.23;12.50;;;21.00;99.90;;;;;;5065056;28;20663;-83
2021/07/21 08:31:12;;;;;;;16.73;11.27;;;21.10;99.90;;;;;;5067246;28;20539;-83
2021/07/21 08:33:38;;;;;;;19.40;12.10;;;21.30;99.90;;;;;;5064828;28;20188;-83
2021/07/21 08:36:04;;;;;;;18.40;12.50;;;21.50;99.90;;;;;;5068843;28;20188;-83
2021/07/21 08:38:30;;;;;;;18.67;12.47;;;21.60;99.90;;;;;;5066327;28;20540;-80
2021/07/21 08:40:56;;;;;;;17.03;12.27;;;21.70;99.90;;;;;;5067504;28;20193;-83
2021/07/21 08:43:22;;;;;;;16.50;11.60;;;21.80;99.90;;;;;;5067192;28;20174;-81
2021/07/21 08:45:48;;;;;;;17.67;12.10;;;21.90;99.90;;;;;;5068692;28;20212;-80
2021/07/21 08:48:14;;;;;;;24.97;12.00;;;22.00;99.90;;;;;;5068683;28;20190;-80
2021/07/21 08:50:45;;;;;;;16.10;12.50;;;22.20;99.90;;;;;;5069355;28;20173;-80
2021/07/21 08:53:11;;;;;;;18.23;12.90;;;22.30;99.90;;;;;;5066805;28;20201;-82
2021/07/21 08:55:37;;;;;;;20.47;12.63;;;22.40;99.90;;;;;;5066236;28;20557;-80
2021/07/21 08:58:04;;;;;;;16.87;11.13;;;22.50;99.90;;;;;;5066355;28;20177;-81
2021/07/21 09:00:30;;;;;;;14.63;12.03;;;22.60;99.90;;;;;;5067513;28;20651;-80
2021/07/21 09:02:55;;;;;;;20.43;12.30;;;22.70;99.90;;;;;;5067558;28;20199;-83
2021/07/21 09:05:21;;;;;;;21.10;12.23;;;22.80;99.90;;;;;;5066846;28;20232;-80
2021/07/21 09:07:47;;;;;;;14.63;11.73;;;23.00;99.90;;;;;;5068589;28;20173;-81
2021/07/21 09:10:18;;;;;;;13.07;11.63;;;23.10;99.90;;;;;;5068258;28;20176;-81
2021/07/21 09:12:46;;;;;;;14.60;11.70;;;23.30;99.90;;;;;;5070072;28;20244;-84
2021/07/21 09:15:16;;;;;;;19.03;11.90;;;23.40;99.90;;;;;;5067399;28;20182;-83
2021/07/21 09:18:04;;;;;;;16.03;10.87;;;23.60;99.90;;;;;;5066850;28;20237;-83
2021/07/21 09:20:31;;;;;;;16.07;12.00;;;23.60;99.90;;;;;;5064350;28;20199;-82
2021/07/21 09:22:57;;;;;;;17.77;11.80;;;23.80;99.90;;;;;;5062136;28;20268;-82
2021/07/21 09:25:26;;;;;;;15.73;11.43;;;23.90;99.90;;;;;;5062384;28;20228;-82
2021/07/21 09:27:55;;;;;;;15.30;11.93;;;24.00;99.90;;;;;;5061480;28;20197;-82
2021/07/21 09:30:24;;;;;;;14.00;11.47;;;24.10;99.90;;;;;;5062179;28;20161;-82
2021/07/21 09:33:08;;;;;;;16.07;11.43;;;24.40;99.90;;;;;;5061412;28;20566;-82
2021/07/21 09:35:46;;;;;;;19.17;12.00;;;24.40;99.90;;;;;;5060508;28;20244;-82
2021/07/21 09:38:20;;;;;;;15.90;11.80;;;24.60;99.90;;;;;;5061810;28;20161;-82
2021/07/21 09:40:49;;;;;;;15.00;11.37;;;24.50;99.90;;;;;;5061594;28;20207;-82
2021/07/21 09:43:18;;;;;;;15.17;11.17;;;24.60;99.90;;;;;;5059970;28;20202;-82
2021/07/21 09:45:45;;;;;;;16.90;11.10;;;24.70;99.90;;;;;;5060737;28;20196;-82
2021/07/21 09:48:12;;;;;;;15.57;11.30;;;25.00;99.90;;;;;;5071052;28;20202;-82
2021/07/21 09:50:44;;;;;;;14.00;10.77;;;25.20;99.90;;;;;;5064135;28;20187;-82
2021/07/21 09:53:12;;;;;;;13.37;11.13;;;25.40;99.90;;;;;;5062094;28;20200;-82
2021/07/21 09:55:41;;;;;;;16.67;11.23;;;25.60;99.90;;;;;;5063735;28;20513;-82
2021/07/21 09:58:16;;;;;;;15.07;11.60;;;25.60;99.90;;;;;;5063521;28;20807;-82
2021/07/21 10:00:47;;;;;;;14.13;10.57;;;25.80;99.90;;;;;;5063989;28;20642;-82
2021/07/21 10:03:27;;;;;;;14.67;11.43;;;25.80;99.90;;;;;;5061880;28;20685;-82
2021/07/21 10:06:22;;;;;;;17.43;11.33;;;25.80;99.90;;;;;;5061702;28;20249;-83
2021/07/21 10:08:49;;;;;;;15.07;10.67;;;25.70;99.90;;;;;;5057920;28;20185;-82
2021/07/21 10:11:20;;;;;;;12.57;10.97;;;25.90;99.90;;;;;;5062019;28;20244;-82
2021/07/21 10:13:47;;;;;;;17.03;10.33;;;26.00;99.90;;;;;;5061306;28;20269;-83
2021/07/21 10:16:30;;;;;;;15.20;10.47;;;26.00;99.90;;;;;;5061835;28;20183;-82
2021/07/21 10:19:03;;;;;;;14.03;10.40;;;26.30;99.90;;;;;;5063538;28;20163;-82
2021/07/21 10:21:29;;;;;;;13.83;11.27;;;26.40;99.90;;;;;;5063568;28;20202;-82
2021/07/21 10:23:54;;;;;;;15.13;11.13;;;26.50;99.90;;;;;;5061800;28;20176;-82
2021/07/21 10:26:20;;;;;;;16.90;11.50;;;26.70;99.90;;;;;;5063571;28;20201;-82
2021/07/21 10:28:46;;;;;;;13.43;10.37;;;26.80;99.90;;;;;;5061551;28;20178;-82
2021/07/21 10:31:12;;;;;;;12.70;10.23;;;27.00;99.90;;;;;;5062955;28;20182;-80
2021/07/21 10:33:38;;;;;;;14.40;10.63;;;26.90;99.90;;;;;;5064297;28;20178;-81
2021/07/21 10:36:04;;;;;;;13.83;10.80;;;26.90;99.90;;;;;;5064527;28;20174;-81
2021/07/21 10:38:31;;;;;;;14.03;10.33;;;27.10;99.90;;;;;;5065484;28;20166;-81
2021/07/21 10:40:57;;;;;;;11.07;9.67;;;26.90;99.90;;;;;;5062591;28;20177;-81
2021/07/21 10:43:28;;;;;;;10.67;9.33;;;27.00;99.90;;;;;;5065330;28;20252;-81
2021/07/21 10:45:54;;;;;;;13.10;10.33;;;27.10;99.90;;;;;;5076659;28;20200;-81
2021/07/21 10:48:51;;;;;;;11.63;9.47;;;27.30;99.90;;;;;;5073581;28;20508;-80
2021/07/21 10:51:41;;;;;;;14.90;10.37;;;27.50;99.90;;;;;;5063788;28;20218;-81
2021/07/21 10:54:28;;;;;;;12.43;9.57;;;27.70;99.90;;;;;;5064601;28;20538;-81
2021/07/21 10:59:42;;;;;;;11.50;9.10;;;27.90;99.90;;;;;;5083274;28;20210;-81
2021/07/21 11:02:08;;;;;;;12.57;9.63;;;28.10;99.90;;;;;;5082329;28;20204;-79
2021/07/21 11:04:45;;;;;;;12.77;10.47;;;27.90;99.90;;;;;;5084020;28;20549;-83
2021/07/21 11:07:17;;;;;;;12.57;9.90;;;27.70;99.90;;;;;;5083468;28;20206;-83
2021/07/21 11:09:48;;;;;;;15.10;10.27;;;28.00;99.90;;;;;;5085535;28;20608;-83
2021/07/21 11:12:31;;;;;;;12.37;10.03;;;28.00;99.90;;;;;;5085726;28;20198;-84
2021/07/21 11:14:57;;;;;;;11.53;9.60;;;27.70;99.90;;;;;;5084925;28;20223;-84
2021/07/21 11:17:23;;;;;;;16.27;10.07;;;27.40;99.90;;;;;;5086334;28;20226;-84
2021/07/21 11:19:50;;;;;;;12.30;10.37;;;27.30;99.90;;;;;;5084654;28;20174;-84
2021/07/21 11:22:18;;;;;;;15.43;10.43;;;27.50;99.90;;;;;;5080446;28;20206;-84
2021/07/21 11:25:15;;;;;;;15.20;9.77;;;27.80;99.90;;;;;;5080618;28;20214;-83
2021/07/21 11:27:55;;;;;;;13.03;11.27;;;27.90;99.90;;;;;;5078625;28;20569;-83
2021/07/21 11:30:44;;;;;;;11.77;10.13;;;28.10;99.90;;;;;;5078654;28;20218;-83
2021/07/21 11:33:49;;;;;;;12.73;9.97;;;28.10;99.90;;;;;;5090046;28;20209;-84
2021/07/21 11:36:43;;;;;;;13.17;9.87;;;27.50;99.90;;;;;;5097540;28;20168;-83
2021/07/21 11:39:35;;;;;;;14.17;9.77;;;27.70;99.90;;;;;;5078748;28;20176;-82
2021/07/21 11:42:04;;;;;;;12.13;9.73;;;28.30;99.90;;;;;;5078648;28;20283;-83
2021/07/21 11:44:32;;;;;;;11.20;10.00;;;28.40;99.90;;;;;;5078164;28;20183;-85
2021/07/21 11:47:00;;;;;;;15.57;10.63;;;28.60;99.90;;;;;;5078405;28;20196;-83
2021/07/21 11:49:28;;;;;;;11.67;10.17;;;28.90;99.90;;;;;;5085919;28;20175;-84
2021/07/21 11:52:01;;;;;;;11.67;9.33;;;29.30;99.90;;;;;;5083996;28;20678;-83
2021/07/21 11:54:31;;;;;;;11.50;10.17;;;29.60;99.90;;;;;;5085757;28;20171;-85
2021/07/21 11:56:58;;;;;;;14.30;10.40;;;29.90;99.90;;;;;;5085693;28;20174;-83
2021/07/21 11:59:38;;;;;;;12.50;9.87;;;30.40;99.90;;;;;;5086886;28;20640;-83
2021/07/21 12:02:13;;;;;;;12.23;10.57;;;31.00;99.90;;;;;;5089466;28;20272;-84
2021/07/21 12:04:44;;;;;;;11.73;10.47;;;31.30;99.90;;;;;;5088180;28;20195;-84
2021/07/21 12:07:12;;;;;;;12.37;10.23;;;31.30;98.90;;;;;;5087514;28;20185;-84
2021/07/21 12:09:43;;;;;;;13.37;10.10;;;31.10;99.90;;;;;;5085789;28;20180;-83
2021/07/21 12:12:12;;;;;;;14.20;10.97;;;31.30;99.90;;;;;;5086957;28;20193;-83
2021/07/21 12:14:39;;;;;;;12.37;11.07;;;31.40;95.90;;;;;;5086165;28;20186;-83
2021/07/21 12:17:12;;;;;;;11.50;10.30;;;31.30;95.90;;;;;;5086858;28;20179;-83
2021/07/21 12:19:39;;;;;;;11.37;9.50;;;30.80;97.00;;;;;;5087389;28;20206;-83
2021/07/21 12:22:06;;;;;;;12.37;10.37;;;30.40;95.80;;;;;;5090003;28;20202;-83
2021/07/21 12:24:39;;;;;;;12.07;9.43;;;30.40;96.60;;;;;;5088254;28;20636;-83
2021/07/21 12:27:06;;;;;;;11.50;10.23;;;30.40;99.90;;;;;;5089760;28;20202;-83
2021/07/21 12:29:33;;;;;;;12.07;10.63;;;30.70;99.90;;;;;;5087493;28;20178;-83
2021/07/21 12:32:07;;;;;;;13.93;10.93;;;30.80;96.10;;;;;;5086188;28;20282;-84
2021/07/21 12:34:39;;;;;;;15.43;10.67;;;30.90;95.80;;;;;;5084272;28;20180;-84
2021/07/21 12:37:13;;;;;;;12.07;10.47;;;30.80;96.30;;;;;;5083175;28;20179;-84
2021/07/21 12:39:40;;;;;;;11.30;10.03;;;30.80;95.70;;;;;;5083446;28;20184;-84
2021/07/21 12:42:13;;;;;;;17.00;9.90;;;31.20;99.10;;;;;;5083959;28;20210;-84
2021/07/21 12:45:05;;;;;;;13.87;10.03;;;31.50;94.60;;;;;;5083274;28;20175;-86